sensor_id;sensor_type;location;lat;lon;timestamp;temperature;humidity
69054;DHT22;56125;52.242;4.756;2024-03-23T00:54:33;18.30;54.30
69054;DHT22;56125;52.242;4.756;2024-03-23T00:59:34;18.40;54.20
69054;DHT22;56125;52.242;4.756;2024-03-23T01:04:35;18.40;54.20
69054;DHT22;56125;52.242;4.756;2024-03-23T01:09:36;18.40;54.00
69054;DHT22;56125;52.242;4.756;2024-03-23T01:14:39;18.40;54.20
69054;DHT22;56125;52.242;4.756;2024-03-23T01:19:40;18.50;54.00
69054;DHT22;56125;52.242;4.756;2024-03-23T01:24:42;18.40;53.90
69054;DHT22;56125;52.242;4.756;2024-03-23T01:29:43;18.50;53.70
69054;DHT22;56125;52.242;4.756;2024-03-23T01:34:44;18.50;53.60
69054;DHT22;56125;52.242;4.756;2024-03-23T01:39:45;18.50;53.40
69054;DHT22;56125;52.242;4.756;2024-03-23T01:44:46;18.50;53.50
69054;DHT22;56125;52.242;4.756;2024-03-23T01:49:47;18.60;53.50
69054;DHT22;56125;52.242;4.756;2024-03-23T01:54:50;18.60;53.20
69054;DHT22;56125;52.242;4.756;2024-03-23T01:59:51;18.60;53.20
69054;DHT22;56125;52.242;4.756;2024-03-23T02:04:54;18.50;52.90
69054;DHT22;56125;52.242;4.756;2024-03-23T02:09:55;18.60;52.60
69054;DHT22;56125;52.242;4.756;2024-03-23T02:14:57;18.60;52.40
69054;DHT22;56125;52.242;4.756;2024-03-23T02:19:58;18.60;52.30
69054;DHT22;56125;52.242;4.756;2024-03-23T02:24:59;18.60;52.10
69054;DHT22;56125;52.242;4.756;2024-03-23T02:30:00;18.70;51.90
69054;DHT22;56125;52.242;4.756;2024-03-23T02:35:01;18.60;51.90
69054;DHT22;56125;52.242;4.756;2024-03-23T02:40:02;18.70;51.60
69054;DHT22;56125;52.242;4.756;2024-03-23T02:45:04;18.60;51.50
69054;DHT22;56125;52.242;4.756;2024-03-23T02:50:06;18.70;51.50
69054;DHT22;56125;52.242;4.756;2024-03-23T02:55:07;18.60;51.20
69054;DHT22;56125;52.242;4.756;2024-03-23T03:00:08;18.70;51.30
69054;DHT22;56125;52.242;4.756;2024-03-23T03:05:11;18.60;51.10
69054;DHT22;56125;52.242;4.756;2024-03-23T03:10:14;18.70;51.00
69054;DHT22;56125;52.242;4.756;2024-03-23T03:15:15;18.70;50.90
69054;DHT22;56125;52.242;4.756;2024-03-23T03:20:16;18.60;50.70
69054;DHT22;56125;52.242;4.756;2024-03-23T03:25:18;18.70;50.80
69054;DHT22;56125;52.242;4.756;2024-03-23T03:30:19;18.70;50.60
69054;DHT22;56125;52.242;4.756;2024-03-23T03:35:21;18.70;50.50
69054;DHT22;56125;52.242;4.756;2024-03-23T03:40:22;18.70;50.60
69054;DHT22;56125;52.242;4.756;2024-03-23T03:45:23;18.60;50.50
69054;DHT22;56125;52.242;4.756;2024-03-23T03:50:24;18.60;50.50
69054;DHT22;56125;52.242;4.756;2024-03-23T03:55:25;18.60;50.40
69054;DHT22;56125;52.242;4.756;2024-03-23T04:00:26;18.70;50.50
69054;DHT22;56125;52.242;4.756;2024-03-23T04:05:27;18.60;50.20
69054;DHT22;56125;52.242;4.756;2024-03-23T04:10:28;18.60;50.30
69054;DHT22;56125;52.242;4.756;2024-03-23T04:15:29;18.60;50.90
69054;DHT22;56125;52.242;4.756;2024-03-23T04:20:30;18.60;50.20
69054;DHT22;56125;52.242;4.756;2024-03-23T04:25:31;18.60;50.20
69054;DHT22;56125;52.242;4.756;2024-03-23T04:30:32;18.60;50.20
69054;DHT22;56125;52.242;4.756;2024-03-23T04:35:33;18.60;50.10
69054;DHT22;56125;52.242;4.756;2024-03-23T04:40:34;18.60;50.10
69054;DHT22;56125;52.242;4.756;2024-03-23T04:45:35;18.60;50.50
69054;DHT22;56125;52.242;4.756;2024-03-23T04:50:36;18.60;50.10
69054;DHT22;56125;52.242;4.756;2024-03-23T04:55:37;18.60;50.40
69054;DHT22;56125;52.242;4.756;2024-03-23T05:00:38;18.60;50.00
69054;DHT22;56125;52.242;4.756;2024-03-23T05:05:39;18.60;50.30
69054;DHT22;56125;52.242;4.756;2024-03-23T05:10:41;18.50;51.10
69054;DHT22;56125;52.242;4.756;2024-03-23T05:15:42;18.50;49.80
69054;DHT22;56125;52.242;4.756;2024-03-23T05:20:43;18.50;50.10
69054;DHT22;56125;52.242;4.756;2024-03-23T05:25:44;18.60;50.40
69054;DHT22;56125;52.242;4.756;2024-03-23T05:30:52;18.50;50.10
69054;DHT22;56125;52.242;4.756;2024-03-23T05:36:01;18.50;50.10
69054;DHT22;56125;52.242;4.756;2024-03-23T05:41:02;18.50;50.40
69054;DHT22;56125;52.242;4.756;2024-03-23T05:46:04;18.50;49.70
69054;DHT22;56125;52.242;4.756;2024-03-23T05:51:09;18.50;49.60
69054;DHT22;56125;52.242;4.756;2024-03-23T05:56:10;18.50;49.80
69054;DHT22;56125;52.242;4.756;2024-03-23T06:01:11;18.50;49.60
69054;DHT22;56125;52.242;4.756;2024-03-23T06:06:13;18.50;49.30
69054;DHT22;56125;52.242;4.756;2024-03-23T06:11:15;18.50;49.60
69054;DHT22;56125;52.242;4.756;2024-03-23T06:16:16;18.60;49.10
69054;DHT22;56125;52.242;4.756;2024-03-23T06:21:17;18.60;49.30
69054;DHT22;56125;52.242;4.756;2024-03-23T06:26:19;18.60;49.00
69054;DHT22;56125;52.242;4.756;2024-03-23T06:31:20;18.60;49.10
69054;DHT22;56125;52.242;4.756;2024-03-23T06:36:21;18.70;48.90
69054;DHT22;56125;52.242;4.756;2024-03-23T06:41:22;18.70;48.90
69054;DHT22;56125;52.242;4.756;2024-03-23T06:46:24;18.70;48.80
69054;DHT22;56125;52.242;4.756;2024-03-23T06:51:25;18.80;48.80
69054;DHT22;56125;52.242;4.756;2024-03-23T06:56:26;18.90;48.60
69054;DHT22;56125;52.242;4.756;2024-03-23T07:01:27;18.90;48.60
69054;DHT22;56125;52.242;4.756;2024-03-23T07:06:30;18.90;48.60
69054;DHT22;56125;52.242;4.756;2024-03-23T07:11:31;18.90;48.60
69054;DHT22;56125;52.242;4.756;2024-03-23T07:16:32;18.90;48.80
69054;DHT22;56125;52.242;4.756;2024-03-23T07:21:33;18.90;48.80
69054;DHT22;56125;52.242;4.756;2024-03-23T07:26:34;18.90;49.30
69054;DHT22;56125;52.242;4.756;2024-03-23T07:31:35;18.80;49.30
69054;DHT22;56125;52.242;4.756;2024-03-23T07:36:36;18.70;48.80
69054;DHT22;56125;52.242;4.756;2024-03-23T07:41:37;18.70;48.80
69054;DHT22;56125;52.242;4.756;2024-03-23T07:46:38;18.70;48.80
69054;DHT22;56125;52.242;4.756;2024-03-23T07:51:39;18.70;50.10
69054;DHT22;56125;52.242;4.756;2024-03-23T07:56:41;18.70;49.50
69054;DHT22;56125;52.242;4.756;2024-03-23T08:01:42;18.70;49.00
69054;DHT22;56125;52.242;4.756;2024-03-23T08:06:43;18.60;49.20
69054;DHT22;56125;52.242;4.756;2024-03-23T08:11:44;18.60;48.00
69054;DHT22;56125;52.242;4.756;2024-03-23T08:16:47;18.70;47.90
69054;DHT22;56125;52.242;4.756;2024-03-23T08:21:50;18.60;47.90
69054;DHT22;56125;52.242;4.756;2024-03-23T08:26:54;18.60;48.80
69054;DHT22;56125;52.242;4.756;2024-03-23T08:31:55;18.60;47.70
69054;DHT22;56125;52.242;4.756;2024-03-23T08:36:56;18.60;48.00
69054;DHT22;56125;52.242;4.756;2024-03-23T08:41:57;18.60;48.30
69054;DHT22;56125;52.242;4.756;2024-03-23T08:46:58;18.60;50.30
69054;DHT22;56125;52.242;4.756;2024-03-23T08:51:59;18.60;51.50
69054;DHT22;56125;52.242;4.756;2024-03-23T08:57:00;18.60;52.20
69054;DHT22;56125;52.242;4.756;2024-03-23T09:02:01;18.60;52.40
69054;DHT22;56125;52.242;4.756;2024-03-23T09:07:03;18.50;52.60
69054;DHT22;56125;52.242;4.756;2024-03-23T09:12:04;18.60;52.80
69054;DHT22;56125;52.242;4.756;2024-03-23T09:17:05;18.50;53.00
69054;DHT22;56125;52.242;4.756;2024-03-23T09:22:06;18.60;52.90
69054;DHT22;56125;52.242;4.756;2024-03-23T09:27:07;18.50;53.10
69054;DHT22;56125;52.242;4.756;2024-03-23T09:32:09;18.50;53.00
69054;DHT22;56125;52.242;4.756;2024-03-23T09:37:10;18.50;52.70
69054;DHT22;56125;52.242;4.756;2024-03-23T09:42:11;18.50;52.70
69054;DHT22;56125;52.242;4.756;2024-03-23T09:47:12;18.50;52.70
69054;DHT22;56125;52.242;4.756;2024-03-23T09:52:13;18.50;52.60
69054;DHT22;56125;52.242;4.756;2024-03-23T09:57:14;18.50;52.50
69054;DHT22;56125;52.242;4.756;2024-03-23T10:02:15;18.50;52.40
69054;DHT22;56125;52.242;4.756;2024-03-23T10:07:21;18.50;52.20
69054;DHT22;56125;52.242;4.756;2024-03-23T10:12:23;18.50;52.00
69054;DHT22;56125;52.242;4.756;2024-03-23T10:17:25;18.50;52.00
69054;DHT22;56125;52.242;4.756;2024-03-23T10:22:26;18.50;51.60
69054;DHT22;56125;52.242;4.756;2024-03-23T10:27:27;18.50;51.60
69054;DHT22;56125;52.242;4.756;2024-03-23T10:32:28;18.50;51.80
69054;DHT22;56125;52.242;4.756;2024-03-23T10:37:29;18.50;52.30
69054;DHT22;56125;52.242;4.756;2024-03-23T10:42:33;18.50;51.60
69054;DHT22;56125;52.242;4.756;2024-03-23T10:47:36;18.50;51.60
69054;DHT22;56125;52.242;4.756;2024-03-23T10:52:37;18.50;51.00
69054;DHT22;56125;52.242;4.756;2024-03-23T10:57:44;18.50;51.80
69054;DHT22;56125;52.242;4.756;2024-03-23T11:02:47;18.50;52.60
69054;DHT22;56125;52.242;4.756;2024-03-23T11:07:52;18.50;52.30
69054;DHT22;56125;52.242;4.756;2024-03-23T11:12:53;18.50;52.20
69054;DHT22;56125;52.242;4.756;2024-03-23T11:18:07;18.50;51.90
69054;DHT22;56125;52.242;4.756;2024-03-23T11:23:28;18.50;51.50
69054;DHT22;56125;52.242;4.756;2024-03-23T11:28:30;18.60;51.10
69054;DHT22;56125;52.242;4.756;2024-03-23T11:33:31;18.60;51.60
69054;DHT22;56125;52.242;4.756;2024-03-23T11:38:36;18.50;51.30
69054;DHT22;56125;52.242;4.756;2024-03-23T11:43:38;18.50;50.90
69054;DHT22;56125;52.242;4.756;2024-03-23T11:48:39;18.50;51.80
69054;DHT22;56125;52.242;4.756;2024-03-23T11:53:40;18.50;51.80
69054;DHT22;56125;52.242;4.756;2024-03-23T11:58:41;18.50;50.90
69054;DHT22;56125;52.242;4.756;2024-03-23T12:03:44;18.50;50.20
69054;DHT22;56125;52.242;4.756;2024-03-23T12:08:45;18.50;50.70
69054;DHT22;56125;52.242;4.756;2024-03-23T12:13:46;18.50;50.30
69054;DHT22;56125;52.242;4.756;2024-03-23T12:18:49;18.50;49.10
69054;DHT22;56125;52.242;4.756;2024-03-23T12:23:50;18.50;49.30
69054;DHT22;56125;52.242;4.756;2024-03-23T12:28:52;18.50;49.70
69054;DHT22;56125;52.242;4.756;2024-03-23T12:33:53;18.50;49.20
69054;DHT22;56125;52.242;4.756;2024-03-23T12:38:54;18.50;49.10
69054;DHT22;56125;52.242;4.756;2024-03-23T12:43:55;18.40;48.80
69054;DHT22;56125;52.242;4.756;2024-03-23T12:48:56;18.50;48.80
69054;DHT22;56125;52.242;4.756;2024-03-23T12:53:59;18.50;48.90
69054;DHT22;56125;52.242;4.756;2024-03-23T12:59:00;18.50;48.70
69054;DHT22;56125;52.242;4.756;2024-03-23T13:04:01;18.50;48.80
69054;DHT22;56125;52.242;4.756;2024-03-23T13:09:03;18.50;48.00
69054;DHT22;56125;52.242;4.756;2024-03-23T13:14:04;18.40;48.50
69054;DHT22;56125;52.242;4.756;2024-03-23T13:19:06;18.40;48.60
69054;DHT22;56125;52.242;4.756;2024-03-23T13:24:07;18.40;48.40
69054;DHT22;56125;52.242;4.756;2024-03-23T13:29:08;18.40;47.80
69054;DHT22;56125;52.242;4.756;2024-03-23T13:34:09;18.40;48.10
69054;DHT22;56125;52.242;4.756;2024-03-23T13:39:11;18.40;48.10
69054;DHT22;56125;52.242;4.756;2024-03-23T13:44:13;18.40;48.00
69054;DHT22;56125;52.242;4.756;2024-03-23T13:54:27;18.40;47.10
69054;DHT22;56125;52.242;4.756;2024-03-23T13:59:29;18.40;48.10
69054;DHT22;56125;52.242;4.756;2024-03-23T14:04:30;18.40;47.00
69054;DHT22;56125;52.242;4.756;2024-03-23T14:09:31;18.40;46.90
69054;DHT22;56125;52.242;4.756;2024-03-23T14:14:33;18.40;47.00
69054;DHT22;56125;52.242;4.756;2024-03-23T14:19:34;18.40;47.00
69054;DHT22;56125;52.242;4.756;2024-03-23T14:24:35;18.40;47.10
69054;DHT22;56125;52.242;4.756;2024-03-23T14:29:37;18.40;47.00
69054;DHT22;56125;52.242;4.756;2024-03-23T14:34:38;18.40;47.30
69054;DHT22;56125;52.242;4.756;2024-03-23T14:39:39;18.40;46.80
69054;DHT22;56125;52.242;4.756;2024-03-23T14:44:42;18.40;46.50
69054;DHT22;56125;52.242;4.756;2024-03-23T14:49:44;18.30;46.60
69054;DHT22;56125;52.242;4.756;2024-03-23T14:54:48;18.40;46.50
69054;DHT22;56125;52.242;4.756;2024-03-23T14:59:49;18.40;46.60
69054;DHT22;56125;52.242;4.756;2024-03-23T15:04:50;18.40;46.70
69054;DHT22;56125;52.242;4.756;2024-03-23T15:09:51;18.30;46.30
69054;DHT22;56125;52.242;4.756;2024-03-23T15:14:52;18.30;46.10
69054;DHT22;56125;52.242;4.756;2024-03-23T15:19:53;18.30;46.10
69054;DHT22;56125;52.242;4.756;2024-03-23T15:24:54;18.30;46.20
69054;DHT22;56125;52.242;4.756;2024-03-23T15:29:58;18.30;46.20
69054;DHT22;56125;52.242;4.756;2024-03-23T15:34:59;18.30;46.20
69054;DHT22;56125;52.242;4.756;2024-03-23T15:40:00;18.30;46.20
69054;DHT22;56125;52.242;4.756;2024-03-23T15:45:01;18.30;46.60
69054;DHT22;56125;52.242;4.756;2024-03-23T15:50:04;18.30;46.60
69054;DHT22;56125;52.242;4.756;2024-03-23T15:55:09;18.30;46.50
69054;DHT22;56125;52.242;4.756;2024-03-23T16:00:11;18.20;46.30
69054;DHT22;56125;52.242;4.756;2024-03-23T16:05:14;18.20;46.30
69054;DHT22;56125;52.242;4.756;2024-03-23T16:10:15;18.20;46.10
69054;DHT22;56125;52.242;4.756;2024-03-23T16:15:16;18.20;46.30
69054;DHT22;56125;52.242;4.756;2024-03-23T16:20:17;18.20;46.40
69054;DHT22;56125;52.242;4.756;2024-03-23T16:25:18;18.20;46.10
69054;DHT22;56125;52.242;4.756;2024-03-23T16:30:20;18.20;46.30
69054;DHT22;56125;52.242;4.756;2024-03-23T16:35:21;18.20;46.20
69054;DHT22;56125;52.242;4.756;2024-03-23T16:40:22;18.10;46.20
69054;DHT22;56125;52.242;4.756;2024-03-23T16:45:25;18.10;46.50
69054;DHT22;56125;52.242;4.756;2024-03-23T16:50:26;18.10;46.60
69054;DHT22;56125;52.242;4.756;2024-03-23T16:55:27;18.20;46.40
69054;DHT22;56125;52.242;4.756;2024-03-23T17:00:28;18.20;46.60
69054;DHT22;56125;52.242;4.756;2024-03-23T17:05:29;18.10;46.20
69054;DHT22;56125;52.242;4.756;2024-03-23T17:10:30;18.10;46.40
69054;DHT22;56125;52.242;4.756;2024-03-23T17:15:31;18.10;46.20
69054;DHT22;56125;52.242;4.756;2024-03-23T17:20:33;18.10;46.20
69054;DHT22;56125;52.242;4.756;2024-03-23T17:25:34;18.10;46.30
69054;DHT22;56125;52.242;4.756;2024-03-23T17:30:35;18.10;46.20
69054;DHT22;56125;52.242;4.756;2024-03-23T17:35:36;18.10;45.90
69054;DHT22;56125;52.242;4.756;2024-03-23T17:40:37;18.00;46.00
69054;DHT22;56125;52.242;4.756;2024-03-23T17:45:38;18.00;45.60
69054;DHT22;56125;52.242;4.756;2024-03-23T17:50:39;18.00;46.90
69054;DHT22;56125;52.242;4.756;2024-03-23T17:55:40;18.00;46.10
69054;DHT22;56125;52.242;4.756;2024-03-23T18:00:41;18.00;46.00
69054;DHT22;56125;52.242;4.756;2024-03-23T18:05:42;18.00;46.00
69054;DHT22;56125;52.242;4.756;2024-03-23T18:10:43;18.00;46.30
69054;DHT22;56125;52.242;4.756;2024-03-23T18:15:45;18.00;46.20
69054;DHT22;56125;52.242;4.756;2024-03-23T18:20:46;18.00;46.30
69054;DHT22;56125;52.242;4.756;2024-03-23T18:25:51;18.00;46.30
69054;DHT22;56125;52.242;4.756;2024-03-23T18:30:56;17.90;46.30
69054;DHT22;56125;52.242;4.756;2024-03-23T18:35:58;17.90;46.20
69054;DHT22;56125;52.242;4.756;2024-03-23T18:40:59;17.90;46.20
69054;DHT22;56125;52.242;4.756;2024-03-23T18:46:00;17.90;46.10
69054;DHT22;56125;52.242;4.756;2024-03-23T18:51:04;17.90;46.10
69054;DHT22;56125;52.242;4.756;2024-03-23T18:56:05;17.90;46.10
69054;DHT22;56125;52.242;4.756;2024-03-23T19:01:07;17.90;46.20
69054;DHT22;56125;52.242;4.756;2024-03-23T19:06:09;17.90;46.30
69054;DHT22;56125;52.242;4.756;2024-03-23T19:11:10;17.90;46.20
69054;DHT22;56125;52.242;4.756;2024-03-23T19:16:11;17.80;46.20
69054;DHT22;56125;52.242;4.756;2024-03-23T19:21:12;17.80;46.20
69054;DHT22;56125;52.242;4.756;2024-03-23T19:26:13;17.80;46.20
69054;DHT22;56125;52.242;4.756;2024-03-23T19:31:14;17.80;46.00
69054;DHT22;56125;52.242;4.756;2024-03-23T19:36:17;17.80;46.10
69054;DHT22;56125;52.242;4.756;2024-03-23T19:41:18;17.80;46.20
69054;DHT22;56125;52.242;4.756;2024-03-23T19:46:19;17.80;46.40
69054;DHT22;56125;52.242;4.756;2024-03-23T19:51:20;17.80;46.40
69054;DHT22;56125;52.242;4.756;2024-03-23T19:56:22;17.80;46.40
69054;DHT22;56125;52.242;4.756;2024-03-23T20:01:23;17.80;46.40
69054;DHT22;56125;52.242;4.756;2024-03-23T20:06:24;17.80;46.60
69054;DHT22;56125;52.242;4.756;2024-03-23T20:11:25;17.80;46.40
69054;DHT22;56125;52.242;4.756;2024-03-23T20:16:26;17.80;46.50
69054;DHT22;56125;52.242;4.756;2024-03-23T20:21:27;17.80;46.30
69054;DHT22;56125;52.242;4.756;2024-03-23T20:26:28;17.80;46.10
69054;DHT22;56125;52.242;4.756;2024-03-23T20:31:29;17.80;45.90
69054;DHT22;56125;52.242;4.756;2024-03-23T20:36:31;17.70;46.00
69054;DHT22;56125;52.242;4.756;2024-03-23T20:41:32;17.70;46.10
69054;DHT22;56125;52.242;4.756;2024-03-23T20:46:33;17.70;45.80
69054;DHT22;56125;52.242;4.756;2024-03-23T20:51:35;17.80;46.10
69054;DHT22;56125;52.242;4.756;2024-03-23T20:56:36;17.70;46.00
69054;DHT22;56125;52.242;4.756;2024-03-23T21:01:37;17.70;45.70
69054;DHT22;56125;52.242;4.756;2024-03-23T21:06:38;17.70;45.90
69054;DHT22;56125;52.242;4.756;2024-03-23T21:11:39;17.70;45.90
69054;DHT22;56125;52.242;4.756;2024-03-23T21:16:40;17.70;45.80
69054;DHT22;56125;52.242;4.756;2024-03-23T21:21:41;17.70;46.00
69054;DHT22;56125;52.242;4.756;2024-03-23T21:26:43;17.70;46.00
69054;DHT22;56125;52.242;4.756;2024-03-23T21:31:44;17.70;46.00
69054;DHT22;56125;52.242;4.756;2024-03-23T21:36:45;17.70;45.80
69054;DHT22;56125;52.242;4.756;2024-03-23T21:41:46;17.60;45.90
69054;DHT22;56125;52.242;4.756;2024-03-23T21:46:50;17.60;45.90
69054;DHT22;56125;52.242;4.756;2024-03-23T21:51:51;17.60;46.80
69054;DHT22;56125;52.242;4.756;2024-03-23T21:56:53;17.60;46.00
69054;DHT22;56125;52.242;4.756;2024-03-23T22:01:54;17.60;46.00
69054;DHT22;56125;52.242;4.756;2024-03-23T22:06:55;17.60;46.00
69054;DHT22;56125;52.242;4.756;2024-03-23T22:11:56;17.60;45.90
69054;DHT22;56125;52.242;4.756;2024-03-23T22:16:57;17.60;46.20
69054;DHT22;56125;52.242;4.756;2024-03-23T22:21:58;17.60;45.90
69054;DHT22;56125;52.242;4.756;2024-03-23T22:26:59;17.60;45.90
69054;DHT22;56125;52.242;4.756;2024-03-23T22:32:00;17.60;46.00
69054;DHT22;56125;52.242;4.756;2024-03-23T22:37:04;17.60;46.00
69054;DHT22;56125;52.242;4.756;2024-03-23T22:42:05;17.60;46.00
69054;DHT22;56125;52.242;4.756;2024-03-23T22:47:07;17.60;46.20
69054;DHT22;56125;52.242;4.756;2024-03-23T22:52:08;17.60;46.20
69054;DHT22;56125;52.242;4.756;2024-03-23T22:57:09;17.50;46.20
69054;DHT22;56125;52.242;4.756;2024-03-23T23:02:10;17.60;46.30
69054;DHT22;56125;52.242;4.756;2024-03-23T23:07:11;17.60;47.50
69054;DHT22;56125;52.242;4.756;2024-03-23T23:12:12;17.50;46.50
69054;DHT22;56125;52.242;4.756;2024-03-23T23:17:13;17.50;46.70
69054;DHT22;56125;52.242;4.756;2024-03-23T23:22:14;17.50;46.60
69054;DHT22;56125;52.242;4.756;2024-03-23T23:27:15;17.50;46.60
69054;DHT22;56125;52.242;4.756;2024-03-23T23:32:16;17.50;46.80
69054;DHT22;56125;52.242;4.756;2024-03-23T23:37:17;17.50;46.70
69054;DHT22;56125;52.242;4.756;2024-03-23T23:42:19;17.50;46.90
69054;DHT22;56125;52.242;4.756;2024-03-23T23:47:20;17.50;47.10
69054;DHT22;56125;52.242;4.756;2024-03-23T23:52:21;17.60;48.10
69054;DHT22;56125;52.242;4.756;2024-03-23T23:57:23;17.50;48.60
